This is the latest recevied weather packets stored in our database for station/object K4ZZR. If no packets are shown the sender has not sent any weather packets the latest 10 day(s).
| Time | Temp. | Humidity | Pressure | Rain* | Wind** | Luminosity | Snow |
|---|---|---|---|---|---|---|---|
| 1778107011 | 27.78° C | 66% | 1015.8 hPa | 0 mm | - | 136 W/m² | - |
| 1778106707 | 27.78° C | 65% | 1015.9 hPa | 0 mm | - | 154 W/m² | - |
| 1778106404 | 27.78° C | 66% | 1015.9 hPa | 0 mm | - | 162 W/m² | - |
| 1778106100 | 27.78° C | 66% | 1015.6 hPa | 0 mm | - | 184 W/m² | - |
| 1778105798 | 27.78° C | 66% | 1015.7 hPa | 0 mm | - | 211 W/m² | - |
| 1778105496 | 27.78° C | 67% | 1015.6 hPa | 0 mm | - | 212 W/m² | - |
| 1778105192 | 27.78° C | 66% | 1015.6 hPa | 0 mm | - | 232 W/m² | - |
| 1778104887 | 27.78° C | 66% | 1015.9 hPa | 0 mm | - | 248 W/m² | - |
| 1778104584 | 27.78° C | 66% | 1015.7 hPa | 0 mm | - | 274 W/m² | - |
| 1778104280 | 28.33° C | 64% | 1015.8 hPa | 0 mm | - | 314 W/m² | - |
| 1778103977 | 28.33° C | 65% | 1015.7 hPa | 0 mm | - | 309 W/m² | - |
| 1778103674 | 28.33° C | 64% | 1015.4 hPa | 0 mm | - | 325 W/m² | - |
| 1778103372 | 28.33° C | 66% | 1015.6 hPa | 0 mm | - | 332 W/m² | - |
| 1778103069 | 28.33° C | 63% | 1015.8 hPa | 0 mm | - | 404 W/m² | - |
| 1778102766 | 28.33° C | 63% | 1015.5 hPa | 0 mm | - | 422 W/m² | - |
| 1778102461 | 28.33° C | 65% | 1015.7 hPa | 0 mm | - | 417 W/m² | - |
| 1778102157 | 28.33° C | 64% | 1015.7 hPa | 0 mm | - | 432 W/m² | - |
| 1778101854 | 28.33° C | 64% | 1015.7 hPa | 0 mm | - | 464 W/m² | - |
| 1778101551 | 28.33° C | 65% | 1015.9 hPa | 0 mm | - | 487 W/m² | - |
| 1778101247 | 28.89° C | 63% | 1015.6 hPa | 0 mm | - | 533 W/m² | - |
| 1778100944 | 28.33° C | 66% | 1015.7 hPa | 0 mm | - | 507 W/m² | - |
| 1778100639 | 28.89° C | 64% | 1015.7 hPa | 0 mm | - | 544 W/m² | - |
| 1778100338 | 28.89° C | 66% | 1015.7 hPa | 0 mm | - | 562 W/m² | - |
| 1778100034 | 28.33° C | 64% | 1015.6 hPa | 0 mm | - | 584 W/m² | - |
| 1778099733 | 28.33° C | 64% | 1015.7 hPa | 0 mm | - | 602 W/m² | - |
* Rain latest hour (hover to see other rain measurements)
** Current wind speed in m/s (hover to see current wind gust speed)